This is the latest recevied weather packets stored in our database for station/object K7NDG. If no packets are shown the sender has not sent any weather packets the latest 10 day(s).
| Time | Temp. | Humidity | Pressure | Rain* | Wind** | Luminosity | Snow |
|---|---|---|---|---|---|---|---|
| 1777582692 | 23.89° C | 45% | 1018.8 hPa | 0 mm | - | 480 W/m² | - |
| 1777582392 | 24.44° C | 43% | 1018.4 hPa | 0 mm | - | 472 W/m² | - |
| 1777581484 | 23.89° C | 49% | 1018.7 hPa | 0 mm | - | 856 W/m² | - |
| 1777580874 | 23.89° C | 50% | 1018.9 hPa | 0 mm | - | 327 W/m² | - |
| 1777580266 | 23.33° C | 54% | 1019 hPa | 0 mm | - | 725 W/m² | - |
| 1777579657 | 23.33° C | 53% | 1018.9 hPa | 0 mm | - | 267 W/m² | - |
| 1777579052 | 23.89° C | 53% | 1019 hPa | 0 mm | - | 495 W/m² | - |
| 1777578747 | 23.33° C | 56% | 1019.3 hPa | 0 mm | - | 552 W/m² | - |
| 1777576927 | 22.22° C | 57% | 1019.5 hPa | 0 mm | - | 599 W/m² | - |
| 1777576623 | 22.22° C | 57% | 1019.6 hPa | 0 mm | - | 360 W/m² | - |
| 1777576318 | 21.67° C | 59% | 1019.8 hPa | 0 mm | - | 272 W/m² | - |
| 1777575407 | 20.56° C | 62% | 1019.7 hPa | 0 mm | - | 296 W/m² | - |
| 1777573588 | 19.44° C | 64% | 1020.1 hPa | 0 mm | - | 483 W/m² | - |
| 1777572981 | 18.89° C | 62% | 1020.2 hPa | 0 mm | - | 484 W/m² | - |
| 1777572677 | 18.89° C | 64% | 1020.1 hPa | 0 mm | - | 481 W/m² | - |
| 1777569951 | 16.11° C | 72% | 1020.7 hPa | 0 mm | - | 358 W/m² | - |
| 1777569647 | 16.11° C | 74% | 1020.8 hPa | 0 mm | - | 331 W/m² | - |
| 1777569039 | 15° C | 77% | 1020.9 hPa | 0 mm | - | 341 W/m² | - |
| 1777568736 | 14.44° C | 77% | 1021 hPa | 0 mm | - | 309 W/m² | - |
| 1777568131 | 13.89° C | 76% | 1020.8 hPa | 0 mm | - | 190 W/m² | - |
| 1777566617 | 12.78° C | 84% | 1021 hPa | 0 mm | - | 247 W/m² | - |
| 1777566012 | 11.67° C | 87% | 1021 hPa | 0 mm | - | 190 W/m² | - |
| 1777565707 | 11.67° C | 86% | 1021.2 hPa | 0 mm | - | 169 W/m² | - |
| 1777565100 | 10.56° C | 88% | 1021.2 hPa | 0 mm | - | 163 W/m² | - |
| 1777563883 | 10° C | 89% | 1021.8 hPa | 0 mm | - | 188 W/m² | - |
* Rain latest hour (hover to see other rain measurements)
** Current wind speed in m/s (hover to see current wind gust speed)